sensor_id;sensor_type;location;lat;lon;timestamp;P1;durP1;ratioP1;P2;durP2;ratioP2
18544;SDS011;9402;51.460;7.276;2022-08-14T00:01:00;7.10;;;6.43;;
18544;SDS011;9402;51.460;7.276;2022-08-14T00:03:03;7.47;;;6.17;;
18544;SDS011;9402;51.460;7.276;2022-08-14T00:05:08;25.10;;;6.87;;
18544;SDS011;9402;51.460;7.276;2022-08-14T00:07:11;11.70;;;6.33;;
18544;SDS011;9402;51.460;7.276;2022-08-14T00:09:14;7.13;;;5.13;;
18544;SDS011;9402;51.460;7.276;2022-08-14T00:11:16;9.60;;;6.10;;
18544;SDS011;9402;51.460;7.276;2022-08-14T00:13:19;7.20;;;5.50;;
18544;SDS011;9402;51.460;7.276;2022-08-14T00:15:24;6.80;;;5.70;;
18544;SDS011;9402;51.460;7.276;2022-08-14T00:17:33;7.53;;;5.97;;
18544;SDS011;9402;51.460;7.276;2022-08-14T00:19:35;9.63;;;5.20;;
18544;SDS011;9402;51.460;7.276;2022-08-14T00:21:39;8.80;;;5.33;;
18544;SDS011;9402;51.460;7.276;2022-08-14T00:23:41;7.00;;;4.90;;
18544;SDS011;9402;51.460;7.276;2022-08-14T00:25:44;19.67;;;17.90;;
18544;SDS011;9402;51.460;7.276;2022-08-14T00:27:48;15.33;;;14.03;;
18544;SDS011;9402;51.460;7.276;2022-08-14T00:29:51;12.10;;;11.07;;
18544;SDS011;9402;51.460;7.276;2022-08-14T00:31:53;13.70;;;12.60;;
18544;SDS011;9402;51.460;7.276;2022-08-14T00:33:55;15.20;;;13.83;;
18544;SDS011;9402;51.460;7.276;2022-08-14T00:35:57;15.80;;;14.00;;
18544;SDS011;9402;51.460;7.276;2022-08-14T00:38:01;16.60;;;15.20;;
18544;SDS011;9402;51.460;7.276;2022-08-14T00:40:05;13.97;;;12.67;;
18544;SDS011;9402;51.460;7.276;2022-08-14T00:42:08;15.60;;;14.30;;
18544;SDS011;9402;51.460;7.276;2022-08-14T00:44:11;15.20;;;13.80;;
18544;SDS011;9402;51.460;7.276;2022-08-14T00:46:13;13.00;;;11.90;;
18544;SDS011;9402;51.460;7.276;2022-08-14T00:48:16;14.83;;;13.53;;
18544;SDS011;9402;51.460;7.276;2022-08-14T00:50:19;13.70;;;12.60;;
18544;SDS011;9402;51.460;7.276;2022-08-14T00:52:22;15.80;;;14.40;;
18544;SDS011;9402;51.460;7.276;2022-08-14T00:54:27;15.40;;;14.07;;
18544;SDS011;9402;51.460;7.276;2022-08-14T00:56:30;14.43;;;13.00;;
18544;SDS011;9402;51.460;7.276;2022-08-14T00:58:32;15.03;;;13.93;;
18544;SDS011;9402;51.460;7.276;2022-08-14T01:00:35;13.20;;;12.00;;
18544;SDS011;9402;51.460;7.276;2022-08-14T01:02:37;13.60;;;12.40;;
18544;SDS011;9402;51.460;7.276;2022-08-14T01:04:42;13.57;;;12.33;;
18544;SDS011;9402;51.460;7.276;2022-08-14T01:06:44;13.93;;;12.53;;
18544;SDS011;9402;51.460;7.276;2022-08-14T01:08:49;7.77;;;6.70;;
18544;SDS011;9402;51.460;7.276;2022-08-14T01:10:56;6.07;;;4.67;;
18544;SDS011;9402;51.460;7.276;2022-08-14T01:12:59;10.50;;;9.50;;
18544;SDS011;9402;51.460;7.276;2022-08-14T01:15:01;4.43;;;3.60;;
18544;SDS011;9402;51.460;7.276;2022-08-14T01:17:18;7.03;;;3.40;;
18544;SDS011;9402;51.460;7.276;2022-08-14T01:19:20;5.90;;;4.23;;
18544;SDS011;9402;51.460;7.276;2022-08-14T01:21:42;5.30;;;3.90;;
18544;SDS011;9402;51.460;7.276;2022-08-14T01:23:47;6.87;;;4.87;;
18544;SDS011;9402;51.460;7.276;2022-08-14T01:25:50;7.90;;;5.50;;
18544;SDS011;9402;51.460;7.276;2022-08-14T01:27:54;8.73;;;4.50;;
18544;SDS011;9402;51.460;7.276;2022-08-14T01:29:56;5.40;;;4.40;;
18544;SDS011;9402;51.460;7.276;2022-08-14T01:31:59;5.10;;;4.07;;
18544;SDS011;9402;51.460;7.276;2022-08-14T01:34:04;10.23;;;3.77;;
18544;SDS011;9402;51.460;7.276;2022-08-14T01:36:07;6.40;;;3.97;;
18544;SDS011;9402;51.460;7.276;2022-08-14T01:38:11;8.03;;;4.20;;
18544;SDS011;9402;51.460;7.276;2022-08-14T01:40:14;7.60;;;3.70;;
18544;SDS011;9402;51.460;7.276;2022-08-14T01:42:17;7.13;;;3.43;;
18544;SDS011;9402;51.460;7.276;2022-08-14T01:44:20;6.37;;;3.80;;
18544;SDS011;9402;51.460;7.276;2022-08-14T01:46:26;5.87;;;3.67;;
18544;SDS011;9402;51.460;7.276;2022-08-14T01:48:29;7.50;;;4.10;;
18544;SDS011;9402;51.460;7.276;2022-08-14T01:50:32;7.97;;;4.53;;
18544;SDS011;9402;51.460;7.276;2022-08-14T01:52:35;5.70;;;4.00;;
18544;SDS011;9402;51.460;7.276;2022-08-14T01:54:39;7.10;;;4.90;;
18544;SDS011;9402;51.460;7.276;2022-08-14T01:56:42;8.00;;;4.27;;
18544;SDS011;9402;51.460;7.276;2022-08-14T01:58:44;7.60;;;3.80;;
18544;SDS011;9402;51.460;7.276;2022-08-14T02:00:49;6.70;;;4.40;;
18544;SDS011;9402;51.460;7.276;2022-08-14T02:02:54;7.97;;;4.40;;
18544;SDS011;9402;51.460;7.276;2022-08-14T02:04:57;6.80;;;4.73;;
18544;SDS011;9402;51.460;7.276;2022-08-14T02:07:00;6.93;;;4.57;;
18544;SDS011;9402;51.460;7.276;2022-08-14T02:09:03;8.53;;;4.23;;
18544;SDS011;9402;51.460;7.276;2022-08-14T02:11:08;7.40;;;4.53;;
18544;SDS011;9402;51.460;7.276;2022-08-14T02:13:17;5.20;;;3.90;;
18544;SDS011;9402;51.460;7.276;2022-08-14T02:15:20;7.80;;;4.17;;
18544;SDS011;9402;51.460;7.276;2022-08-14T02:17:22;10.97;;;7.00;;
18544;SDS011;9402;51.460;7.276;2022-08-14T02:19:26;9.87;;;7.60;;
18544;SDS011;9402;51.460;7.276;2022-08-14T02:21:30;9.20;;;7.77;;
18544;SDS011;9402;51.460;7.276;2022-08-14T02:23:33;9.10;;;7.80;;
18544;SDS011;9402;51.460;7.276;2022-08-14T02:25:35;9.37;;;7.83;;
18544;SDS011;9402;51.460;7.276;2022-08-14T02:27:39;7.70;;;6.90;;
18544;SDS011;9402;51.460;7.276;2022-08-14T02:29:42;11.00;;;7.30;;
18544;SDS011;9402;51.460;7.276;2022-08-14T02:31:45;9.93;;;7.70;;
18544;SDS011;9402;51.460;7.276;2022-08-14T02:33:49;9.83;;;7.40;;
18544;SDS011;9402;51.460;7.276;2022-08-14T02:35:51;12.00;;;7.77;;
18544;SDS011;9402;51.460;7.276;2022-08-14T02:37:54;11.77;;;10.67;;
18544;SDS011;9402;51.460;7.276;2022-08-14T02:39:56;11.07;;;8.20;;
18544;SDS011;9402;51.460;7.276;2022-08-14T02:41:59;13.60;;;9.60;;
18544;SDS011;9402;51.460;7.276;2022-08-14T02:44:03;12.00;;;10.53;;
18544;SDS011;9402;51.460;7.276;2022-08-14T02:46:06;9.00;;;7.70;;
18544;SDS011;9402;51.460;7.276;2022-08-14T02:48:10;11.00;;;9.77;;
18544;SDS011;9402;51.460;7.276;2022-08-14T02:50:13;11.53;;;10.43;;
18544;SDS011;9402;51.460;7.276;2022-08-14T02:52:16;15.20;;;12.63;;
18544;SDS011;9402;51.460;7.276;2022-08-14T02:54:19;13.13;;;10.97;;
18544;SDS011;9402;51.460;7.276;2022-08-14T02:56:22;9.93;;;8.80;;
18544;SDS011;9402;51.460;7.276;2022-08-14T02:58:26;12.13;;;10.57;;
18544;SDS011;9402;51.460;7.276;2022-08-14T03:00:32;14.13;;;12.50;;
18544;SDS011;9402;51.460;7.276;2022-08-14T03:02:35;12.83;;;11.67;;
18544;SDS011;9402;51.460;7.276;2022-08-14T03:04:37;12.33;;;11.07;;
18544;SDS011;9402;51.460;7.276;2022-08-14T03:06:40;11.30;;;10.30;;
18544;SDS011;9402;51.460;7.276;2022-08-14T03:08:43;12.23;;;11.03;;
18544;SDS011;9402;51.460;7.276;2022-08-14T03:10:47;12.20;;;11.00;;
18544;SDS011;9402;51.460;7.276;2022-08-14T03:12:50;13.40;;;12.07;;
18544;SDS011;9402;51.460;7.276;2022-08-14T03:14:52;13.57;;;11.53;;
18544;SDS011;9402;51.460;7.276;2022-08-14T03:16:56;10.03;;;8.90;;
18544;SDS011;9402;51.460;7.276;2022-08-14T03:18:58;14.73;;;12.33;;
18544;SDS011;9402;51.460;7.276;2022-08-14T03:21:02;12.50;;;11.20;;
18544;SDS011;9402;51.460;7.276;2022-08-14T03:23:06;16.37;;;10.50;;
18544;SDS011;9402;51.460;7.276;2022-08-14T03:25:08;10.30;;;8.90;;
18544;SDS011;9402;51.460;7.276;2022-08-14T03:27:11;12.30;;;11.10;;
18544;SDS011;9402;51.460;7.276;2022-08-14T03:29:15;11.03;;;10.00;;
18544;SDS011;9402;51.460;7.276;2022-08-14T03:31:19;13.33;;;11.57;;
18544;SDS011;9402;51.460;7.276;2022-08-14T03:33:24;12.57;;;10.13;;
18544;SDS011;9402;51.460;7.276;2022-08-14T03:35:28;12.70;;;11.40;;
18544;SDS011;9402;51.460;7.276;2022-08-14T03:37:30;12.53;;;11.33;;
18544;SDS011;9402;51.460;7.276;2022-08-14T03:39:33;14.33;;;13.03;;
18544;SDS011;9402;51.460;7.276;2022-08-14T03:41:36;14.00;;;12.50;;
18544;SDS011;9402;51.460;7.276;2022-08-14T03:43:39;12.70;;;11.33;;
18544;SDS011;9402;51.460;7.276;2022-08-14T03:45:41;13.23;;;12.03;;
18544;SDS011;9402;51.460;7.276;2022-08-14T03:47:44;15.23;;;12.33;;
18544;SDS011;9402;51.460;7.276;2022-08-14T03:49:48;14.70;;;13.10;;
18544;SDS011;9402;51.460;7.276;2022-08-14T03:51:51;12.93;;;11.33;;
18544;SDS011;9402;51.460;7.276;2022-08-14T03:53:53;11.27;;;10.10;;
18544;SDS011;9402;51.460;7.276;2022-08-14T03:55:57;13.70;;;12.43;;
18544;SDS011;9402;51.460;7.276;2022-08-14T03:57:59;15.97;;;12.63;;
18544;SDS011;9402;51.460;7.276;2022-08-14T04:00:03;13.23;;;11.93;;
18544;SDS011;9402;51.460;7.276;2022-08-14T04:02:08;13.70;;;12.40;;
18544;SDS011;9402;51.460;7.276;2022-08-14T04:04:10;13.93;;;12.63;;
18544;SDS011;9402;51.460;7.276;2022-08-14T04:06:15;12.33;;;11.07;;
18544;SDS011;9402;51.460;7.276;2022-08-14T04:08:19;11.20;;;9.90;;
18544;SDS011;9402;51.460;7.276;2022-08-14T04:10:21;12.50;;;11.30;;
18544;SDS011;9402;51.460;7.276;2022-08-14T04:12:24;18.93;;;11.63;;
18544;SDS011;9402;51.460;7.276;2022-08-14T04:14:26;16.73;;;15.13;;
18544;SDS011;9402;51.460;7.276;2022-08-14T04:16:29;16.53;;;13.97;;
18544;SDS011;9402;51.460;7.276;2022-08-14T04:18:31;15.00;;;13.50;;
18544;SDS011;9402;51.460;7.276;2022-08-14T04:20:35;14.63;;;13.43;;
18544;SDS011;9402;51.460;7.276;2022-08-14T04:22:39;19.70;;;14.23;;
18544;SDS011;9402;51.460;7.276;2022-08-14T04:24:42;16.27;;;14.60;;
18544;SDS011;9402;51.460;7.276;2022-08-14T04:26:45;16.30;;;14.70;;
18544;SDS011;9402;51.460;7.276;2022-08-14T04:28:48;16.00;;;14.40;;
18544;SDS011;9402;51.460;7.276;2022-08-14T04:30:50;15.93;;;14.33;;
18544;SDS011;9402;51.460;7.276;2022-08-14T04:32:53;17.50;;;15.77;;
18544;SDS011;9402;51.460;7.276;2022-08-14T04:34:56;17.20;;;15.63;;
18544;SDS011;9402;51.460;7.276;2022-08-14T04:36:58;16.03;;;13.10;;
18544;SDS011;9402;51.460;7.276;2022-08-14T04:39:19;17.30;;;13.87;;
18544;SDS011;9402;51.460;7.276;2022-08-14T04:41:42;18.10;;;13.17;;
18544;SDS011;9402;51.460;7.276;2022-08-14T04:44:02;13.40;;;12.00;;
18544;SDS011;9402;51.460;7.276;2022-08-14T04:46:05;20.37;;;12.43;;
18544;SDS011;9402;51.460;7.276;2022-08-14T04:48:11;15.17;;;11.13;;
18544;SDS011;9402;51.460;7.276;2022-08-14T04:50:13;16.07;;;13.50;;
18544;SDS011;9402;51.460;7.276;2022-08-14T04:52:15;17.57;;;15.70;;
18544;SDS011;9402;51.460;7.276;2022-08-14T04:54:17;12.83;;;11.20;;
18544;SDS011;9402;51.460;7.276;2022-08-14T04:56:22;14.23;;;11.60;;
18544;SDS011;9402;51.460;7.276;2022-08-14T04:58:25;14.10;;;11.37;;
18544;SDS011;9402;51.460;7.276;2022-08-14T05:00:29;8.10;;;6.70;;
18544;SDS011;9402;51.460;7.276;2022-08-14T05:02:32;10.47;;;6.00;;
18544;SDS011;9402;51.460;7.276;2022-08-14T05:04:35;11.60;;;6.37;;
18544;SDS011;9402;51.460;7.276;2022-08-14T05:06:38;13.20;;;6.50;;
18544;SDS011;9402;51.460;7.276;2022-08-14T05:08:40;8.87;;;5.30;;
18544;SDS011;9402;51.460;7.276;2022-08-14T05:10:45;10.50;;;6.93;;
18544;SDS011;9402;51.460;7.276;2022-08-14T05:12:50;10.13;;;6.37;;
18544;SDS011;9402;51.460;7.276;2022-08-14T05:14:52;21.07;;;7.70;;
18544;SDS011;9402;51.460;7.276;2022-08-14T05:16:54;14.30;;;6.00;;
18544;SDS011;9402;51.460;7.276;2022-08-14T05:18:57;12.77;;;7.63;;
18544;SDS011;9402;51.460;7.276;2022-08-14T05:21:00;11.10;;;6.60;;
18544;SDS011;9402;51.460;7.276;2022-08-14T05:23:05;10.57;;;6.67;;
18544;SDS011;9402;51.460;7.276;2022-08-14T05:25:08;9.07;;;6.43;;
18544;SDS011;9402;51.460;7.276;2022-08-14T05:27:11;12.23;;;6.30;;
18544;SDS011;9402;51.460;7.276;2022-08-14T05:29:14;9.73;;;6.67;;
18544;SDS011;9402;51.460;7.276;2022-08-14T05:31:17;12.03;;;6.57;;
18544;SDS011;9402;51.460;7.276;2022-08-14T05:33:20;11.80;;;7.73;;
18544;SDS011;9402;51.460;7.276;2022-08-14T05:35:23;15.27;;;7.23;;
18544;SDS011;9402;51.460;7.276;2022-08-14T05:37:26;9.30;;;6.50;;
18544;SDS011;9402;51.460;7.276;2022-08-14T05:39:29;14.07;;;7.00;;
18544;SDS011;9402;51.460;7.276;2022-08-14T05:41:32;11.97;;;7.13;;
18544;SDS011;9402;51.460;7.276;2022-08-14T05:43:36;18.97;;;7.00;;
18544;SDS011;9402;51.460;7.276;2022-08-14T05:45:39;13.63;;;8.00;;
18544;SDS011;9402;51.460;7.276;2022-08-14T05:47:42;13.73;;;7.43;;
18544;SDS011;9402;51.460;7.276;2022-08-14T05:49:44;16.10;;;8.20;;
18544;SDS011;9402;51.460;7.276;2022-08-14T05:51:47;12.23;;;6.77;;
18544;SDS011;9402;51.460;7.276;2022-08-14T05:53:49;8.80;;;5.90;;
18544;SDS011;9402;51.460;7.276;2022-08-14T05:55:52;9.90;;;6.60;;
18544;SDS011;9402;51.460;7.276;2022-08-14T05:57:57;12.37;;;6.93;;
18544;SDS011;9402;51.460;7.276;2022-08-14T06:00:03;13.03;;;7.80;;
18544;SDS011;9402;51.460;7.276;2022-08-14T06:02:06;14.10;;;8.30;;
18544;SDS011;9402;51.460;7.276;2022-08-14T06:04:08;12.27;;;6.77;;
18544;SDS011;9402;51.460;7.276;2022-08-14T06:06:11;13.33;;;7.80;;
18544;SDS011;9402;51.460;7.276;2022-08-14T06:08:14;13.50;;;7.33;;
18544;SDS011;9402;51.460;7.276;2022-08-14T06:10:17;16.20;;;10.00;;
18544;SDS011;9402;51.460;7.276;2022-08-14T06:12:20;14.07;;;8.53;;
18544;SDS011;9402;51.460;7.276;2022-08-14T06:14:22;12.43;;;8.13;;
18544;SDS011;9402;51.460;7.276;2022-08-14T06:16:26;12.13;;;8.40;;
18544;SDS011;9402;51.460;7.276;2022-08-14T06:18:28;9.37;;;6.97;;
18544;SDS011;9402;51.460;7.276;2022-08-14T06:20:31;12.93;;;7.97;;
18544;SDS011;9402;51.460;7.276;2022-08-14T06:22:33;19.53;;;8.73;;
18544;SDS011;9402;51.460;7.276;2022-08-14T06:24:35;16.00;;;8.50;;
18544;SDS011;9402;51.460;7.276;2022-08-14T06:26:38;12.03;;;7.17;;
18544;SDS011;9402;51.460;7.276;2022-08-14T06:28:40;16.80;;;8.50;;
18544;SDS011;9402;51.460;7.276;2022-08-14T06:30:42;12.73;;;8.13;;
18544;SDS011;9402;51.460;7.276;2022-08-14T06:32:46;10.30;;;7.20;;
18544;SDS011;9402;51.460;7.276;2022-08-14T06:34:49;10.97;;;8.10;;
18544;SDS011;9402;51.460;7.276;2022-08-14T06:36:52;12.00;;;8.60;;
18544;SDS011;9402;51.460;7.276;2022-08-14T06:38:55;13.40;;;8.30;;
18544;SDS011;9402;51.460;7.276;2022-08-14T06:40:58;38.43;;;11.30;;
18544;SDS011;9402;51.460;7.276;2022-08-14T06:43:00;12.20;;;8.73;;
18544;SDS011;9402;51.460;7.276;2022-08-14T06:45:05;12.10;;;8.03;;
18544;SDS011;9402;51.460;7.276;2022-08-14T06:47:08;9.50;;;7.80;;
18544;SDS011;9402;51.460;7.276;2022-08-14T06:49:12;13.13;;;8.90;;
18544;SDS011;9402;51.460;7.276;2022-08-14T06:51:14;11.97;;;8.60;;
18544;SDS011;9402;51.460;7.276;2022-08-14T06:53:17;15.37;;;10.40;;
18544;SDS011;9402;51.460;7.276;2022-08-14T06:55:19;11.40;;;10.20;;
18544;SDS011;9402;51.460;7.276;2022-08-14T06:57:23;13.23;;;9.43;;
18544;SDS011;9402;51.460;7.276;2022-08-14T06:59:26;9.50;;;8.40;;
18544;SDS011;9402;51.460;7.276;2022-08-14T07:01:28;12.40;;;8.97;;
18544;SDS011;9402;51.460;7.276;2022-08-14T07:03:48;17.30;;;8.50;;
18544;SDS011;9402;51.460;7.276;2022-08-14T07:06:09;11.83;;;8.53;;
18544;SDS011;9402;51.460;7.276;2022-08-14T07:08:14;12.87;;;8.67;;
18544;SDS011;9402;51.460;7.276;2022-08-14T07:10:17;13.00;;;9.00;;
18544;SDS011;9402;51.460;7.276;2022-08-14T07:12:21;11.30;;;9.27;;
18544;SDS011;9402;51.460;7.276;2022-08-14T07:14:23;11.23;;;9.07;;
18544;SDS011;9402;51.460;7.276;2022-08-14T07:16:25;10.70;;;7.90;;
18544;SDS011;9402;51.460;7.276;2022-08-14T07:18:28;9.37;;;7.90;;
18544;SDS011;9402;51.460;7.276;2022-08-14T07:20:31;13.83;;;8.83;;
18544;SDS011;9402;51.460;7.276;2022-08-14T07:22:35;18.43;;;11.30;;
18544;SDS011;9402;51.460;7.276;2022-08-14T07:24:37;9.07;;;7.50;;
18544;SDS011;9402;51.460;7.276;2022-08-14T07:26:40;14.00;;;8.83;;
18544;SDS011;9402;51.460;7.276;2022-08-14T07:28:42;10.37;;;8.70;;
18544;SDS011;9402;51.460;7.276;2022-08-14T07:30:44;9.60;;;8.60;;
18544;SDS011;9402;51.460;7.276;2022-08-14T07:32:47;11.37;;;10.30;;
18544;SDS011;9402;51.460;7.276;2022-08-14T07:34:49;8.67;;;7.77;;
18544;SDS011;9402;51.460;7.276;2022-08-14T07:36:53;9.60;;;8.23;;
18544;SDS011;9402;51.460;7.276;2022-08-14T07:38:57;14.80;;;10.60;;
18544;SDS011;9402;51.460;7.276;2022-08-14T07:40:59;11.37;;;8.97;;
18544;SDS011;9402;51.460;7.276;2022-08-14T07:43:02;12.27;;;8.57;;
18544;SDS011;9402;51.460;7.276;2022-08-14T07:45:05;20.83;;;15.67;;
18544;SDS011;9402;51.460;7.276;2022-08-14T07:47:07;18.60;;;15.57;;
18544;SDS011;9402;51.460;7.276;2022-08-14T07:49:10;21.20;;;19.57;;
18544;SDS011;9402;51.460;7.276;2022-08-14T07:51:13;40.43;;;37.53;;
18544;SDS011;9402;51.460;7.276;2022-08-14T07:53:15;40.17;;;36.70;;
18544;SDS011;9402;51.460;7.276;2022-08-14T07:55:20;41.37;;;38.23;;
18544;SDS011;9402;51.460;7.276;2022-08-14T07:57:22;49.43;;;45.70;;
18544;SDS011;9402;51.460;7.276;2022-08-14T07:59:25;23.47;;;10.80;;
18544;SDS011;9402;51.460;7.276;2022-08-14T08:01:27;9.83;;;4.90;;
18544;SDS011;9402;51.460;7.276;2022-08-14T08:03:30;9.60;;;5.80;;
18544;SDS011;9402;51.460;7.276;2022-08-14T08:05:35;14.63;;;5.37;;
18544;SDS011;9402;51.460;7.276;2022-08-14T08:07:39;6.90;;;5.53;;
18544;SDS011;9402;51.460;7.276;2022-08-14T08:09:46;14.23;;;5.33;;
18544;SDS011;9402;51.460;7.276;2022-08-14T08:11:51;12.70;;;5.90;;
18544;SDS011;9402;51.460;7.276;2022-08-14T08:13:54;7.07;;;5.23;;
18544;SDS011;9402;51.460;7.276;2022-08-14T08:15:59;7.20;;;5.40;;
18544;SDS011;9402;51.460;7.276;2022-08-14T08:18:03;8.17;;;5.50;;
18544;SDS011;9402;51.460;7.276;2022-08-14T08:20:06;5.70;;;4.80;;
18544;SDS011;9402;51.460;7.276;2022-08-14T08:22:13;5.07;;;4.57;;
18544;SDS011;9402;51.460;7.276;2022-08-14T08:24:15;7.23;;;4.93;;
18544;SDS011;9402;51.460;7.276;2022-08-14T08:26:18;9.60;;;4.93;;
18544;SDS011;9402;51.460;7.276;2022-08-14T08:28:22;8.73;;;5.40;;
18544;SDS011;9402;51.460;7.276;2022-08-14T08:30:27;7.17;;;5.13;;
18544;SDS011;9402;51.460;7.276;2022-08-14T08:32:36;7.87;;;5.20;;
18544;SDS011;9402;51.460;7.276;2022-08-14T08:34:43;7.30;;;4.50;;
18544;SDS011;9402;51.460;7.276;2022-08-14T08:36:47;5.80;;;4.63;;
18544;SDS011;9402;51.460;7.276;2022-08-14T08:38:49;11.30;;;5.00;;
18544;SDS011;9402;51.460;7.276;2022-08-14T08:40:53;7.33;;;5.00;;
18544;SDS011;9402;51.460;7.276;2022-08-14T08:42:56;6.13;;;4.80;;
18544;SDS011;9402;51.460;7.276;2022-08-14T08:45:00;12.67;;;5.33;;
18544;SDS011;9402;51.460;7.276;2022-08-14T08:47:03;8.00;;;5.17;;
18544;SDS011;9402;51.460;7.276;2022-08-14T08:49:06;8.10;;;4.43;;
18544;SDS011;9402;51.460;7.276;2022-08-14T08:51:18;7.47;;;5.30;;
18544;SDS011;9402;51.460;7.276;2022-08-14T08:53:22;7.27;;;5.33;;
18544;SDS011;9402;51.460;7.276;2022-08-14T08:55:31;22.70;;;5.50;;
18544;SDS011;9402;51.460;7.276;2022-08-14T08:57:35;6.60;;;5.53;;
18544;SDS011;9402;51.460;7.276;2022-08-14T08:59:37;5.70;;;4.53;;
18544;SDS011;9402;51.460;7.276;2022-08-14T09:01:41;7.47;;;4.47;;
18544;SDS011;9402;51.460;7.276;2022-08-14T09:03:50;10.40;;;5.30;;
18544;SDS011;9402;51.460;7.276;2022-08-14T09:05:53;8.07;;;5.83;;
18544;SDS011;9402;51.460;7.276;2022-08-14T09:08:13;5.73;;;4.50;;
18544;SDS011;9402;51.460;7.276;2022-08-14T09:10:16;7.97;;;5.00;;
18544;SDS011;9402;51.460;7.276;2022-08-14T09:12:19;6.43;;;5.00;;
18544;SDS011;9402;51.460;7.276;2022-08-14T09:14:22;4.90;;;3.97;;
18544;SDS011;9402;51.460;7.276;2022-08-14T09:16:26;11.90;;;5.27;;
18544;SDS011;9402;51.460;7.276;2022-08-14T09:18:29;5.10;;;4.60;;
18544;SDS011;9402;51.460;7.276;2022-08-14T09:20:32;7.77;;;4.97;;
18544;SDS011;9402;51.460;7.276;2022-08-14T09:22:35;6.80;;;4.50;;
18544;SDS011;9402;51.460;7.276;2022-08-14T09:24:37;11.80;;;4.10;;
18544;SDS011;9402;51.460;7.276;2022-08-14T09:26:41;9.27;;;4.43;;
18544;SDS011;9402;51.460;7.276;2022-08-14T09:28:45;6.70;;;4.33;;
18544;SDS011;9402;51.460;7.276;2022-08-14T09:30:48;7.50;;;4.83;;
18544;SDS011;9402;51.460;7.276;2022-08-14T09:35:42;6.07;;;4.93;;
18544;SDS011;9402;51.460;7.276;2022-08-14T09:37:54;5.70;;;4.30;;
18544;SDS011;9402;51.460;7.276;2022-08-14T09:40:07;7.00;;;4.93;;
18544;SDS011;9402;51.460;7.276;2022-08-14T09:42:22;6.13;;;5.00;;
18544;SDS011;9402;51.460;7.276;2022-08-14T09:44:32;10.50;;;4.70;;
18544;SDS011;9402;51.460;7.276;2022-08-14T09:46:50;6.93;;;4.73;;
18544;SDS011;9402;51.460;7.276;2022-08-14T09:48:59;6.10;;;4.10;;
18544;SDS011;9402;51.460;7.276;2022-08-14T09:51:05;6.27;;;4.73;;
18544;SDS011;9402;51.460;7.276;2022-08-14T09:53:09;5.23;;;4.53;;
18544;SDS011;9402;51.460;7.276;2022-08-14T09:55:15;6.40;;;5.47;;
18544;SDS011;9402;51.460;7.276;2022-08-14T09:57:22;6.43;;;4.50;;
18544;SDS011;9402;51.460;7.276;2022-08-14T09:59:26;5.50;;;4.17;;
18544;SDS011;9402;51.460;7.276;2022-08-14T10:01:34;5.80;;;4.37;;
18544;SDS011;9402;51.460;7.276;2022-08-14T10:03:46;6.10;;;4.73;;
18544;SDS011;9402;51.460;7.276;2022-08-14T10:05:50;5.97;;;5.13;;
18544;SDS011;9402;51.460;7.276;2022-08-14T10:08:15;7.30;;;5.50;;
18544;SDS011;9402;51.460;7.276;2022-08-14T10:10:26;5.00;;;4.00;;
18544;SDS011;9402;51.460;7.276;2022-08-14T10:12:45;7.00;;;4.93;;
18544;SDS011;9402;51.460;7.276;2022-08-14T10:14:48;8.70;;;5.33;;
18544;SDS011;9402;51.460;7.276;2022-08-14T10:16:51;12.10;;;4.83;;
18544;SDS011;9402;51.460;7.276;2022-08-14T10:19:02;7.30;;;6.00;;
18544;SDS011;9402;51.460;7.276;2022-08-14T10:21:07;8.53;;;5.40;;
18544;SDS011;9402;51.460;7.276;2022-08-14T10:23:19;4.60;;;4.17;;
18544;SDS011;9402;51.460;7.276;2022-08-14T10:25:23;6.13;;;5.50;;
18544;SDS011;9402;51.460;7.276;2022-08-14T10:27:27;7.47;;;5.10;;
18544;SDS011;9402;51.460;7.276;2022-08-14T10:29:30;10.00;;;5.23;;
18544;SDS011;9402;51.460;7.276;2022-08-14T10:31:33;8.17;;;5.57;;
18544;SDS011;9402;51.460;7.276;2022-08-14T10:33:36;6.10;;;4.67;;
18544;SDS011;9402;51.460;7.276;2022-08-14T10:35:39;6.60;;;4.43;;
18544;SDS011;9402;51.460;7.276;2022-08-14T10:37:44;7.43;;;5.70;;
18544;SDS011;9402;51.460;7.276;2022-08-14T10:39:57;5.67;;;5.00;;
18544;SDS011;9402;51.460;7.276;2022-08-14T10:42:02;7.30;;;4.67;;
18544;SDS011;9402;51.460;7.276;2022-08-14T10:44:07;7.00;;;4.50;;
18544;SDS011;9402;51.460;7.276;2022-08-14T10:46:12;12.90;;;6.73;;
18544;SDS011;9402;51.460;7.276;2022-08-14T10:48:15;9.23;;;4.93;;
18544;SDS011;9402;51.460;7.276;2022-08-14T10:50:27;5.20;;;4.70;;
18544;SDS011;9402;51.460;7.276;2022-08-14T10:52:30;6.80;;;4.67;;
18544;SDS011;9402;51.460;7.276;2022-08-14T10:54:35;6.77;;;4.93;;
18544;SDS011;9402;51.460;7.276;2022-08-14T10:56:41;9.47;;;5.10;;
18544;SDS011;9402;51.460;7.276;2022-08-14T10:58:44;9.57;;;5.10;;
18544;SDS011;9402;51.460;7.276;2022-08-14T11:00:53;8.40;;;4.90;;
18544;SDS011;9402;51.460;7.276;2022-08-14T11:02:57;6.57;;;4.73;;
18544;SDS011;9402;51.460;7.276;2022-08-14T11:05:01;8.23;;;5.60;;
18544;SDS011;9402;51.460;7.276;2022-08-14T11:07:12;10.93;;;5.23;;
18544;SDS011;9402;51.460;7.276;2022-08-14T11:09:15;6.50;;;4.57;;
18544;SDS011;9402;51.460;7.276;2022-08-14T11:11:18;4.93;;;4.43;;
18544;SDS011;9402;51.460;7.276;2022-08-14T11:13:23;5.90;;;4.67;;
18544;SDS011;9402;51.460;7.276;2022-08-14T11:15:27;7.00;;;5.13;;
18544;SDS011;9402;51.460;7.276;2022-08-14T11:17:30;5.90;;;4.23;;
18544;SDS011;9402;51.460;7.276;2022-08-14T11:19:35;5.57;;;4.50;;
18544;SDS011;9402;51.460;7.276;2022-08-14T11:21:38;8.37;;;5.17;;
18544;SDS011;9402;51.460;7.276;2022-08-14T11:23:41;7.63;;;5.13;;
18544;SDS011;9402;51.460;7.276;2022-08-14T11:25:45;7.53;;;4.97;;
18544;SDS011;9402;51.460;7.276;2022-08-14T11:27:49;8.07;;;4.83;;
18544;SDS011;9402;51.460;7.276;2022-08-14T11:29:53;6.97;;;4.57;;
18544;SDS011;9402;51.460;7.276;2022-08-14T11:31:57;6.60;;;5.47;;
18544;SDS011;9402;51.460;7.276;2022-08-14T11:34:00;7.57;;;6.30;;
18544;SDS011;9402;51.460;7.276;2022-08-14T11:36:03;7.00;;;4.50;;
18544;SDS011;9402;51.460;7.276;2022-08-14T11:38:08;6.33;;;4.93;;
18544;SDS011;9402;51.460;7.276;2022-08-14T11:40:14;6.53;;;4.33;;
18544;SDS011;9402;51.460;7.276;2022-08-14T11:42:18;5.87;;;4.67;;
18544;SDS011;9402;51.460;7.276;2022-08-14T11:44:22;6.27;;;4.83;;
18544;SDS011;9402;51.460;7.276;2022-08-14T11:46:26;8.70;;;4.93;;
18544;SDS011;9402;51.460;7.276;2022-08-14T11:48:30;6.60;;;5.83;;
18544;SDS011;9402;51.460;7.276;2022-08-14T11:50:33;6.33;;;4.57;;
18544;SDS011;9402;51.460;7.276;2022-08-14T11:52:36;17.80;;;5.80;;
18544;SDS011;9402;51.460;7.276;2022-08-14T11:54:39;5.60;;;3.93;;
18544;SDS011;9402;51.460;7.276;2022-08-14T11:56:41;10.83;;;5.87;;
18544;SDS011;9402;51.460;7.276;2022-08-14T11:58:48;5.97;;;5.37;;
18544;SDS011;9402;51.460;7.276;2022-08-14T12:00:52;7.07;;;4.90;;
18544;SDS011;9402;51.460;7.276;2022-08-14T12:02:59;10.70;;;4.90;;
18544;SDS011;9402;51.460;7.276;2022-08-14T12:05:02;7.87;;;5.13;;
18544;SDS011;9402;51.460;7.276;2022-08-14T12:07:05;9.40;;;5.20;;
18544;SDS011;9402;51.460;7.276;2022-08-14T12:09:08;10.50;;;6.03;;
18544;SDS011;9402;51.460;7.276;2022-08-14T12:11:12;8.77;;;4.60;;
18544;SDS011;9402;51.460;7.276;2022-08-14T12:13:16;7.90;;;4.57;;
18544;SDS011;9402;51.460;7.276;2022-08-14T12:15:27;6.10;;;4.83;;
18544;SDS011;9402;51.460;7.276;2022-08-14T12:17:31;8.40;;;5.03;;
18544;SDS011;9402;51.460;7.276;2022-08-14T12:19:47;7.90;;;5.10;;
18544;SDS011;9402;51.460;7.276;2022-08-14T12:21:50;12.17;;;5.07;;
18544;SDS011;9402;51.460;7.276;2022-08-14T12:23:59;6.93;;;5.43;;
18544;SDS011;9402;51.460;7.276;2022-08-14T12:26:04;7.23;;;5.40;;
18544;SDS011;9402;51.460;7.276;2022-08-14T12:28:09;21.47;;;5.83;;
18544;SDS011;9402;51.460;7.276;2022-08-14T12:30:13;8.33;;;5.03;;
18544;SDS011;9402;51.460;7.276;2022-08-14T12:32:25;6.93;;;5.13;;
18544;SDS011;9402;51.460;7.276;2022-08-14T12:34:37;11.23;;;5.33;;